地図

経路データ

SID SEASON NUMBER BASIN SUBBASIN NAME ISO_TIME NATURE LAT LON WMO_WIND WMO_PRES WMO_AGENCY TRACK_TYPE DIST2LAND LANDFALL IFLAG USA_AGENCY USA_ATCF_ID USA_LAT USA_LON USA_RECORD USA_STATUS USA_WIND USA_PRES USA_SSHS USA_R34_NE USA_R34_SE USA_R34_SW USA_R34_NW USA_R50_NE USA_R50_SE USA_R50_SW USA_R50_NW USA_R64_NE USA_R64_SE USA_R64_SW USA_R64_NW USA_POCI USA_ROCI USA_RMW USA_EYE TOKYO_LAT TOKYO_LON TOKYO_GRADE TOKYO_WIND TOKYO_PRES TOKYO_R50_DIR TOKYO_R50_LONG TOKYO_R50_SHORT TOKYO_R30_DIR TOKYO_R30_LONG TOKYO_R30_SHORT TOKYO_LAND CMA_LAT CMA_LON CMA_CAT CMA_WIND CMA_PRES HKO_LAT HKO_LON HKO_CAT HKO_WIND HKO_PRES NEWDELHI_LAT NEWDELHI_LON NEWDELHI_GRADE NEWDELHI_WIND NEWDELHI_PRES NEWDELHI_CI NEWDELHI_DP NEWDELHI_POCI REUNION_LAT REUNION_LON REUNION_TYPE REUNION_WIND REUNION_PRES REUNION_TNUM REUNION_CI REUNION_RMW REUNION_R34_NE REUNION_R34_SE REUNION_R34_SW REUNION_R34_NW REUNION_R50_NE REUNION_R50_SE REUNION_R50_SW REUNION_R50_NW REUNION_R64_NE REUNION_R64_SE REUNION_R64_SW REUNION_R64_NW BOM_LAT BOM_LON BOM_TYPE BOM_WIND BOM_PRES BOM_TNUM BOM_CI BOM_RMW BOM_R34_NE BOM_R34_SE BOM_R34_SW BOM_R34_NW BOM_R50_NE BOM_R50_SE BOM_R50_SW BOM_R50_NW BOM_R64_NE BOM_R64_SE BOM_R64_SW BOM_R64_NW BOM_ROCI BOM_POCI BOM_EYE BOM_POS_METHOD BOM_PRES_METHOD NADI_LAT NADI_LON NADI_CAT NADI_WIND NADI_PRES WELLINGTON_LAT WELLINGTON_LON WELLINGTON_WIND WELLINGTON_PRES DS824_LAT DS824_LON DS824_STAGE DS824_WIND DS824_PRES TD9636_LAT TD9636_LON TD9636_STAGE TD9636_WIND TD9636_PRES TD9635_LAT TD9635_LON TD9635_WIND TD9635_PRES TD9635_ROCI NEUMANN_LAT NEUMANN_LON NEUMANN_CLASS NEUMANN_WIND NEUMANN_PRES MLC_LAT MLC_LON MLC_CLASS MLC_WIND MLC_PRES USA_GUST BOM_GUST BOM_GUST_PER REUNION_GUST REUNION_GUST_PER USA_SEAHGT USA_SEARAD_NE USA_SEARAD_SE USA_SEARAD_SW USA_SEARAD_NW STORM_SPEED STORM_DIR
1972236N37296 1972 79 NA NA BETTY 1972-08-22 12:00:00 SS 36.5000 -64.0000 30 hurdat_atl main 775 771 O_____________ hurdat_atl AL101972 36.5000 -64.0000 SD 30 -2 13 68
1972236N37296 1972 79 NA NA BETTY 1972-08-22 15:00:00 SS 36.7385 -63.2503 main 775 758 P_____________ AL101972 36.7385 -63.2503 SD 30 -2 13 67
1972236N37296 1972 79 NA NA BETTY 1972-08-22 18:00:00 SS 37.0000 -62.5000 30 hurdat_atl main 761 750 O_____________ hurdat_atl AL101972 37.0000 -62.5000 SD 30 -2 13 65
1972236N37296 1972 79 NA NA BETTY 1972-08-22 21:00:00 SS 37.2870 -61.7506 main 750 750 P_____________ AL101972 37.2870 -61.7506 SD 30 -2 13 67
1972236N37296 1972 79 NA NA BETTY 1972-08-23 00:00:00 SS 37.5000 -61.0000 30 hurdat_atl main 759 759 O_____________ hurdat_atl AL101972 37.5000 -61.0000 SD 30 -2 12 78
1972236N37296 1972 79 NA NA BETTY 1972-08-23 03:00:00 SS 37.5370 -60.2489 main 793 793 P_____________ AL101972 37.5370 -60.2489 SD 30 -2 12 90
1972236N37296 1972 79 NA NA BETTY 1972-08-23 06:00:00 SS 37.5000 -59.5000 30 hurdat_atl main 827 827 O_____________ hurdat_atl AL101972 37.5000 -59.5000 SD 30 -2 12 91
1972236N37296 1972 79 NA NA BETTY 1972-08-23 09:00:00 SS 37.5149 -58.7279 main 868 868 P_____________ AL101972 37.5149 -58.7279 SD 30 -2 12 90
1972236N37296 1972 79 NA NA BETTY 1972-08-23 12:00:00 SS 37.5000 -58.0000 30 hurdat_atl main 894 894 O_____________ hurdat_atl AL101972 37.5000 -58.0000 SD 30 -2 11 96
1972236N37296 1972 79 NA NA BETTY 1972-08-23 15:00:00 SS 37.4074 -57.3321 main 923 923 P_____________ AL101972 37.4074 -57.3321 SD 30 -2 10 102
1972236N37296 1972 79 NA NA BETTY 1972-08-23 18:00:00 SS 37.3000 -56.8000 30 hurdat_atl main 948 948 O_____________ hurdat_atl AL101972 37.3000 -56.8000 SD 30 -2 7 104
1972236N37296 1972 79 NA NA BETTY 1972-08-23 21:00:00 SS 37.2344 -56.4627 main 968 968 P_____________ AL101972 37.2344 -56.4627 SD 32 -2 5 102
1972236N37296 1972 79 NA NA BETTY 1972-08-24 00:00:00 SS 37.2000 -56.2000 35 hurdat_atl main 978 978 O_____________ hurdat_atl AL101972 37.2000 -56.2000 SS 35 -2 5 95
1972236N37296 1972 79 NA NA BETTY 1972-08-24 03:00:00 SS 37.1925 -55.8576 main 989 989 P_____________ AL101972 37.1925 -55.8576 SS 35 -2 6 90
1972236N37296 1972 79 NA NA BETTY 1972-08-24 06:00:00 SS 37.2000 -55.5000 35 hurdat_atl main 1004 1004 O_____________ hurdat_atl AL101972 37.2000 -55.5000 SS 35 -2 6 90
1972236N37296 1972 79 NA NA BETTY 1972-08-24 09:00:00 SS 37.1925 -55.1349 main 1020 1020 P_____________ AL101972 37.1925 -55.1349 SS 35 -2 6 90
1972236N37296 1972 79 NA NA BETTY 1972-08-24 12:00:00 SS 37.2000 -54.8000 35 hurdat_atl main 1032 1032 O_____________ hurdat_atl AL101972 37.2000 -54.8000 SS 35 -2 5 83
1972236N37296 1972 79 NA NA BETTY 1972-08-24 15:00:00 SS 37.2498 -54.5351 main 1045 1035 P_____________ AL101972 37.2498 -54.5351 SS 35 -2 4 76
1972236N37296 1972 79 NA NA BETTY 1972-08-24 18:00:00 SS 37.3000 -54.3000 35 hurdat_atl main 1036 1034 O_____________ hurdat_atl AL101972 37.3000 -54.3000 SS 35 -2 4 82
1972236N37296 1972 79 NA NA BETTY 1972-08-24 21:00:00 SS 37.3075 -54.0349 main 1034 1034 P_____________ AL101972 37.3075 -54.0349 SS 35 -2 4 90
1972236N37296 1972 79 NA NA BETTY 1972-08-25 00:00:00 SS 37.3000 -53.8000 35 hurdat_atl main 1034 1034 O_____________ hurdat_atl AL101972 37.3000 -53.8000 SS 35 -2 3 91
1972236N37296 1972 79 NA NA BETTY 1972-08-25 03:00:00 SS 37.2999 -53.6275 main 1034 1034 P_____________ AL101972 37.2999 -53.6275 SS 37 -2 2 90
1972236N37296 1972 79 NA NA BETTY 1972-08-25 06:00:00 SS 37.3000 -53.5000 40 hurdat_atl main 1034 1034 O_____________ hurdat_atl AL101972 37.3000 -53.5000 SS 40 -2 2 88
1972236N37296 1972 79 NA NA BETTY 1972-08-25 09:00:00 SS 37.3075 -53.3925 main 1034 1034 P_____________ AL101972 37.3075 -53.3925 SS 42 -2 2 90
1972236N37296 1972 79 NA NA BETTY 1972-08-25 12:00:00 SS 37.3000 -53.3000 45 997 hurdat_atl main 1034 1034 O_____________ hurdat_atl AL101972 37.3000 -53.3000 SS 45 997 -2 2 116
1972236N37296 1972 79 NA NA BETTY 1972-08-25 15:00:00 SS 37.2350 -53.1999 main 1045 1045 P_____________ AL101972 37.2350 -53.1999 SS 45 999 -2 2 123
1972236N37296 1972 79 NA NA BETTY 1972-08-25 18:00:00 SS 37.2000 -53.1000 45 1002 hurdat_atl main 1045 1034 O_____________ hurdat_atl AL101972 37.2000 -53.1000 SS 45 1002 -2 2 78
1972236N37296 1972 79 NA NA BETTY 1972-08-25 21:00:00 SS 37.2700 -53.0000 main 1034 1023 P_____________ AL101972 37.2700 -53.0000 SS 50 997 -2 3 39
1972236N37296 1972 79 NA NA BETTY 1972-08-26 00:00:00 SS 37.4000 -52.9000 55 992 hurdat_atl main 1023 1012 O_____________ hurdat_atl AL101972 37.4000 -52.9000 SS 55 992 -2 3 29
1972236N37296 1972 79 NA NA BETTY 1972-08-26 03:00:00 SS 37.5425 -52.8074 main 1012 990 P_____________ AL101972 37.5425 -52.8074 SS 55 993 -2 3 27
1972236N37296 1972 79 NA NA BETTY 1972-08-26 06:00:00 SS 37.7000 -52.7000 55 hurdat_atl main 990 979 I_____________ hurdat_atl AL101972 37.7000 -52.7000 SS 55 995 -2 4 32
1972236N37296 1972 79 NA NA BETTY 1972-08-26 09:00:00 SS 37.8500 -52.5649 main 979 958 P_____________ AL101972 37.8500 -52.5649 SS 55 996 -2 4 38
1972236N37296 1972 79 NA NA BETTY 1972-08-26 12:00:00 SS 38.0000 -52.4000 55 998 hurdat_atl main 958 947 O_____________ hurdat_atl AL101972 38.0000 -52.4000 SS 55 998 -2 4 39
1972236N37296 1972 79 NA NA BETTY 1972-08-26 15:00:00 SS 38.1571 -52.2523 main 937 927 P_____________ AL101972 38.1571 -52.2523 SS 55 998 -2 4 46
1972236N37296 1972 79 NA NA BETTY 1972-08-26 18:00:00 SS 38.3000 -52.0000 55 998 hurdat_atl main 928 918 O_____________ hurdat_atl AL101972 38.3000 -52.0000 SS 55 998 -2 6 62
1972236N37296 1972 79 NA NA BETTY 1972-08-26 21:00:00 SS 38.4214 -51.6201 main 921 911 P_____________ AL101972 38.4214 -51.6201 SS 57 -2 8 76
1972236N37296 1972 79 NA NA BETTY 1972-08-27 00:00:00 SS 38.5000 -51.0000 60 hurdat_atl main 918 918 O_____________ hurdat_atl AL101972 38.5000 -51.0000 SS 60 -2 12 87
1972236N37296 1972 79 NA NA BETTY 1972-08-27 03:00:00 SS 38.4924 -50.1034 main 935 935 P_____________ AL101972 38.4924 -50.1034 SS 60 -2 16 90
1972236N37296 1972 79 NA NA BETTY 1972-08-27 06:00:00 SS 38.5000 -49.0000 60 hurdat_atl main 963 963 O_____________ hurdat_atl AL101972 38.5000 -49.0000 SS 60 -2 18 88
1972236N37296 1972 79 NA NA BETTY 1972-08-27 09:00:00 SS 38.5606 -47.7978 main 992 992 P_____________ AL101972 38.5606 -47.7978 SS 70 -2 19 81
1972236N37296 1972 79 NA NA BETTY 1972-08-27 12:00:00 TS 38.8000 -46.6000 80 987 hurdat_atl main 1019 1013 O_____________ hurdat_atl AL101972 38.8000 -46.6000 HU 80 987 1 19 65
1972236N37296 1972 79 NA NA BETTY 1972-08-27 15:00:00 TS 39.3833 -45.5731 main 1009 1000 P_____________ AL101972 39.3833 -45.5731 HU 82 984 1 20 52
1972236N37296 1972 79 NA NA BETTY 1972-08-27 18:00:00 TS 40.0000 -44.6000 85 hurdat_atl main 1008 1008 I_____________ hurdat_atl AL101972 40.0000 -44.6000 HU 85 981 2 18 59
1972236N37296 1972 79 NA NA BETTY 1972-08-27 21:00:00 TS 40.3093 -43.5899 main 1041 1041 P_____________ AL101972 40.3093 -43.5899 HU 87 978 2 16 72
1972236N37296 1972 79 NA NA BETTY 1972-08-28 00:00:00 TS 40.5000 -42.6000 90 976 hurdat_atl main 1086 1086 O_____________ hurdat_atl AL101972 40.5000 -42.6000 HU 90 976 2 16 75
1972236N37296 1972 79 NA NA BETTY 1972-08-28 03:00:00 TS 40.7231 -41.5602 main 1134 1134 P_____________ AL101972 40.7231 -41.5602 HU 87 976 2 15 74
1972236N37296 1972 79 NA NA BETTY 1972-08-28 06:00:00 TS 40.9000 -40.7000 85 hurdat_atl main 1179 1179 I_____________ hurdat_atl AL101972 40.9000 -40.7000 HU 85 976 2 9 72
1972236N37296 1972 79 NA NA BETTY 1972-08-28 09:00:00 TS 41.0180 -40.3736 main 1192 1192 P_____________ AL101972 41.0180 -40.3736 HU 85 976 2 6 72
1972236N37296 1972 79 NA NA BETTY 1972-08-28 12:00:00 TS 41.1000 -39.9000 85 977 hurdat_atl main 1219 1219 O_____________ hurdat_atl AL101972 41.1000 -39.9000 HU 85 977 2 14 83
1972236N37296 1972 79 NA NA BETTY 1972-08-28 15:00:00 TS 41.1863 -38.4886 main 1309 1309 P_____________ AL101972 41.1863 -38.4886 HU 85 977 2 22 87
1972236N37296 1972 79 NA NA BETTY 1972-08-28 18:00:00 TS 41.2000 -37.0000 85 978 hurdat_atl main 1415 1415 O_____________ hurdat_atl AL101972 41.2000 -37.0000 HU 85 978 2 17 93
1972236N37296 1972 79 NA NA BETTY 1972-08-28 21:00:00 TS 41.0894 -36.2138 main 1477 1477 P_____________ AL101972 41.0894 -36.2138 HU 85 979 2 10 102
1972236N37296 1972 79 NA NA BETTY 1972-08-29 00:00:00 TS 41.0000 -35.7000 85 981 hurdat_atl main 1518 1518 O_____________ hurdat_atl AL101972 41.0000 -35.7000 HU 85 981 2 8 92
1972236N37296 1972 79 NA NA BETTY 1972-08-29 03:00:00 TS 41.0544 -35.1427 main 1554 1554 P_____________ AL101972 41.0544 -35.1427 HU 85 981 2 9 76
1972236N37296 1972 79 NA NA BETTY 1972-08-29 06:00:00 TS 41.2000 -34.6000 85 982 hurdat_atl main 1583 1583 O_____________ hurdat_atl AL101972 41.2000 -34.6000 HU 85 982 2 9 68
1972236N37296 1972 79 NA NA BETTY 1972-08-29 09:00:00 TS 41.4076 -33.9858 main 1614 1614 P_____________ AL101972 41.4076 -33.9858 HU 85 984 2 10 66
1972236N37296 1972 79 NA NA BETTY 1972-08-29 12:00:00 TS 41.6000 -33.4000 85 986 hurdat_atl main 1645 1645 O_____________ hurdat_atl AL101972 41.6000 -33.4000 HU 85 986 2 9 71
1972236N37296 1972 79 NA NA BETTY 1972-08-29 15:00:00 TS 41.6874 -32.8821 main 1676 1676 P_____________ AL101972 41.6874 -32.8821 HU 82 987 1 7 82
1972236N37296 1972 79 NA NA BETTY 1972-08-29 18:00:00 TS 41.7000 -32.5000 80 989 hurdat_atl main 1705 1705 O_____________ hurdat_atl AL101972 41.7000 -32.5000 HU 80 989 1 4 93
1972236N37296 1972 79 NA NA BETTY 1972-08-29 21:00:00 TS 41.6647 -32.2898 main 1719 1719 P_____________ AL101972 41.6647 -32.2898 HU 77 989 1 2 114
1972236N37296 1972 79 NA NA BETTY 1972-08-30 00:00:00 TS 41.6000 -32.2000 75 989 hurdat_atl main 1732 1732 O_____________ hurdat_atl AL101972 41.6000 -32.2000 HU 75 989 1 2 129
1972236N37296 1972 79 NA NA BETTY 1972-08-30 03:00:00 TS 41.5650 -32.1200 main 1739 1739 P_____________ AL101972 41.5650 -32.1200 HU 75 989 1 1 143
1972236N37296 1972 79 NA NA BETTY 1972-08-30 06:00:00 TS 41.5000 -32.1000 75 989 hurdat_atl main 1744 1744 O_____________ hurdat_atl AL101972 41.5000 -32.1000 HU 75 989 1 2 173
1972236N37296 1972 79 NA NA BETTY 1972-08-30 09:00:00 TS 41.3649 -32.1124 main 1750 1748 P_____________ AL101972 41.3649 -32.1124 HU 72 992 1 3 194
1972236N37296 1972 79 NA NA BETTY 1972-08-30 12:00:00 TS 41.2000 -32.2000 70 996 hurdat_atl main 1754 1752 O_____________ hurdat_atl AL101972 41.2000 -32.2000 HU 70 996 1 3 205
1972236N37296 1972 79 NA NA BETTY 1972-08-30 15:00:00 TS 41.0493 -32.3021 main 1758 1742 P_____________ AL101972 41.0493 -32.3021 HU 67 997 1 4 225
1972236N37296 1972 79 NA NA BETTY 1972-08-30 18:00:00 TS 40.9000 -32.6000 65 999 hurdat_atl main 1742 1712 O_____________ hurdat_atl AL101972 40.9000 -32.6000 HU 65 999 1 8 245
1972236N37296 1972 79 NA NA BETTY 1972-08-30 21:00:00 TS 40.7206 -33.2262 main 1712 1661 P_____________ AL101972 40.7206 -33.2262 HU 60 1000 0 11 254
1972236N37296 1972 79 NA NA BETTY 1972-08-31 00:00:00 TS 40.6000 -34.0000 55 1002 hurdat_atl main 1661 1613 O_____________ hurdat_atl AL101972 40.6000 -34.0000 TS 55 1002 0 11 264
1972236N37296 1972 79 NA NA BETTY 1972-08-31 03:00:00 TS 40.5971 -34.6999 main 1613 1558 P_____________ AL101972 40.5971 -34.6999 TS 50 1004 0 11 275
1972236N37296 1972 79 NA NA BETTY 1972-08-31 06:00:00 TS 40.7000 -35.4000 45 1006 hurdat_atl main 1558 1502 O_____________ hurdat_atl AL101972 40.7000 -35.4000 TS 45 1006 0 11 283
1972236N37296 1972 79 NA NA BETTY 1972-08-31 09:00:00 TS 40.8476 -36.1302 main 1502 1435 P_____________ AL101972 40.8476 -36.1302 TS 42 1006 0 11 291
1972236N37296 1972 79 NA NA BETTY 1972-08-31 12:00:00 TS 41.1000 -36.8000 40 1006 hurdat_atl main 1435 1375 O_____________ hurdat_atl AL101972 41.1000 -36.8000 TS 40 1006 0 11 303
1972236N37296 1972 79 NA NA BETTY 1972-08-31 15:00:00 TS 41.4549 -37.3893 main 1369 1317 P_____________ AL101972 41.4549 -37.3893 TS 40 1007 0 11 317
1972236N37296 1972 79 NA NA BETTY 1972-08-31 18:00:00 TS 41.9000 -37.8000 40 1008 hurdat_atl main 1317 1280 O_____________ hurdat_atl AL101972 41.9000 -37.8000 TS 40 1008 0 10 335
1972236N37296 1972 79 NA NA BETTY 1972-08-31 21:00:00 TS 42.3771 -37.9686 main 1274 1246 P_____________ AL101972 42.3771 -37.9686 TS 37 0 10 352
1972236N37296 1972 79 NA NA BETTY 1972-09-01 00:00:00 TS 42.9000 -38.0000 35 hurdat_atl main 1246 1212 O_____________ hurdat_atl AL101972 42.9000 -38.0000 TS 35 0 11 356
1972236N37296 1972 79 NA NA BETTY 1972-09-01 03:00:00 TS 43.4425 -38.0796 main 1212 1183 P_____________ AL101972 43.4425 -38.0796 TS 37 0 11 356
1972236N37296 1972 79 NA NA BETTY 1972-09-01 06:00:00 TS 44.0000 -38.1000 40 hurdat_atl main 1183 1169 O_____________ hurdat_atl AL101972 44.0000 -38.1000 TS 40 0 11 3
1972236N37296 1972 79 NA NA BETTY 1972-09-01 09:00:00 TS 44.5500 -38.0084 main 1165 1153 P_____________ AL101972 44.5500 -38.0084 TS 42 0 11 7
1972236N37296 1972 79 NA NA BETTY 1972-09-01 12:00:00 TS 45.1000 -37.9000 45 999 hurdat_atl main 1153 1137 O_____________ hurdat_atl AL101972 45.1000 -37.9000 TS 45 999 0 11 5
1972236N37296 1972 79 NA NA BETTY 1972-09-01 15:00:00 TS 45.6500 -37.8718 main 1137 1120 P_____________ AL101972 45.6500 -37.8718 TS 47 0 11 0
1972236N37296 1972 79 NA NA BETTY 1972-09-01 18:00:00 TS 46.2000 -37.9000 50 hurdat_atl main 1120 O_____________ hurdat_atl AL101972 46.2000 -37.9000 TS 50 0 11 0

IBTrACS Databaseについて

本データベースは、米国NOAAが公開する1842年以降の世界の熱帯低気圧のベストトラックデータアーカイブInternational Best Track Archive for Climate Stewardship (IBTrACS)を、ウェブで閲覧しやすい形式に変換したものです。

最終更新日:2021-11-26